Regional Weather Synopsis
Issued by NWS Denver/Boulder, CO

Home | Current Version | Previous Version | Text Only | Print | Product List | Glossary On
Versions: 1 2 3 4 5 6 7 8 9 10 11 12 13 14 15 16 17 18 19 20 21 22 23 24 25 26 27 28 29 30 31 32 33 34 35 36 37 38 39 40 41 42 43 44 45 46 47 48 49 50
000
NZUS99 KBOU 181247
SYNBOU

Hot-Air Balloon Forecast for Colorado
National Weather Service Denver/Boulder, Colorado
0545 MST Monday, February 18, 2019


* * * * * Northeast Colorado * * * * *

SPECI KFNL 181238Z AUTO 14013KT 9SM -SN SCT014 OVC029 M14/M17 A3015 RMK
       AO2 P0000 FZRANO
SPECI KFNL 181217Z AUTO 13012KT 6SM -SN BKN014 OVC029 M13/M16 A3014 RMK
       AO2 P0000 FZRANO
METAR KFNL 181156Z AUTO 14011KT 9SM -SN FEW014 OVC029 M13/M16 A3014 RMK
       AO2 SLP263 P0000 60000 T11331161 11094 21133 53000 FZRANO

METAR KGXY 181156Z AUTO 13010KT 9SM -SN FEW038 M14/M18 A3019 RMK AO2
       SLP296 P0000 60000 T11391178 11117 21139 53005 FZRANO
METAR KGXY 181056Z AUTO 12008KT 9SM -SN SCT038 M13/M17 A3018 RMK AO2
       SLP289 P0000 T11331172 FZRANO
METAR KGXY 180956Z AUTO 13007KT 9SM -SN BKN038 M13/M17 A3017 RMK AO2
       SLP282 P0000 T11281167 FZRANO

METAR KLMO 181235Z AUTO 10008KT 5SM -SN SCT014 OVC030 M11/M14 A3016 RMK
       AO2 T11101145
METAR KLMO 181215Z AUTO 10009KT 4SM -SN SCT016 OVC028 M11/M14 A3015 RMK
       AO2 T11081145
METAR KLMO 181155Z AUTO 10007KT 3SM -SN SCT016 SCT021 OVC026 M11/M14
       A3015 RMK AO2 T11071142

METAR KBDU 181230Z AUTO 07007KT 4SM -SN OVC014 M12/M14 A3011 RMK AO2
METAR KBDU 181212Z AUTO 06007KT 4SM -SN OVC014 M11/M13 A3010 RMK AO2
METAR KBDU 181154Z AUTO 08006KT 4SM -SN OVC014 M11/M13 A3010 RMK AO2

METAR KEIK 181234Z AUTO 11006KT 7SM -SN SCT034 M12/M15 A3018 RMK AO2
       T11201150
METAR KEIK 181216Z AUTO 12007KT 10SM -SN BKN034 M12/M15 A3018 RMK AO2
       T11201148
METAR KEIK 181154Z AUTO 10007KT 7SM -SN BKN036 M12/M15 A3018 RMK AO2
       T11201147

KBJC 181150Z 1812/1912 10007KT 3SM -SN SCT010 OVC025
     FM181600 05009KT P6SM SCT020 OVC035
     FM190400 05007KT P6SM SCT015 OVC030 PROB30 1904/1908 3SM -SN
      BKN015
     FM190800 01009KT 3SM -SN OVC015
METAR KBJC 181157Z AUTO 08006KT 4SM SCT020 OVC047 M12/M14 A3007 RMK AO2
       PWINO
METAR KBJC 181152Z AUTO 07006KT 2 1/2SM SCT008 SCT020 OVC049 M12/M14
       A3007 RMK AO2 PWINO
METAR KBJC 181135Z AUTO 09006KT 4SM SCT008 SCT012 BKN020 M12/M14 A3008
       RMK AO2 PWINO

KDEN 181140Z 1812/1918 10013KT 4SM -SN BR SCT015 OVC030
      TEMPO 1812/1814 2SM -SN BR BKN015
     FM181600 12013KT P6SM SCT025 OVC040
     FM190400 15013KT P6SM SCT025 OVC040 PROB30 1904/1908 3SM -SN
     FM190800 17013KT 4SM -SN SCT020 OVC030
      TEMPO 1910/1914 2SM -SN BKN020
METAR KDEN 181153Z 10014KT 5SM -SN BKN041 OVC050 M14/M17 A3010 RMK AO2
       SLP249 P0000 60000 T11441167 11111 21144 53007
SPECI KDEN 181110Z 11014KT 3SM -SN BR SCT025 OVC043 M14/M16 A3009 RMK
       AO2 P0000 T11391161
SPECI KDEN 181102Z 11014KT 2 1/2SM -SN BR BKN025 OVC039 M14/M16 A3009
       RMK AO2 P0000 T11391161


KBKF 181001Z 1810/1915 09009KT 9999 SCT008 BKN015 OVC030 620205
     QNH3003INS
     TEMPO 1810/1815 -SN BKN010 OVC025 620155
     BECMG 1817/1818 14009KT 9999 SCT015 BKN030 620304
     QNH2999INS
     BECMG 1905/1906 15009KT 9999 SCT030 BKN050 620509
     QNH2996INS
     BECMG 1913/1914 12009KT 9999 VCSH SCT020 BKN030 610305
     QNH2992INS TXM07/1822Z TNM14/1812Z
SPECI KBKF 181226Z 10011KT 10SM FEW006 SCT018 BKN027 BKN035 M14/M16
       A3007 RMK AO2A
METAR KBKF 181158Z 10013KT 10SM SCT006 BKN017 BKN021 BKN027 M14/M15
       A3007 RMK AO2A SNE19 SLP239 P0000 60000 T11371154 11110 21137
       52002
SPECI KBKF 181119Z 11010KT 6SM BR FEW005 SCT012 BKN025 M14/M15 A3006
        RMK AO2A

KAPA 181150Z 1812/1912 10010KT 5SM -SN BR SCT012 OVC030
      TEMPO 1812/1813 3SM -SN BR BKN012
     FM181600 15012KT P6SM SCT020 OVC035
     FM190400 18012KT P6SM SCT020 OVC035 PROB30 1904/1908 3SM -SN
     FM190800 18016G24KT 4SM -SN SCT020 OVC030
METAR KAPA 181153Z 11010KT 4SM -SN BR OVC021 M13/M15 A3003 RMK AO2
       SNE07B39 SLP239 P0000 60000 T11281150 11100 21128 50000
SPECI KAPA 181110Z 11009KT 9SM OVC021 M12/M14 A3003 RMK AO2 SNE07 P0000
       T11221144
METAR KAPA 181053Z 11007KT 1 1/4SM -SN BR OVC022 M12/M14 A3003 RMK AO2
       SLP234 P0000 T11221139

METAR KMNH 181224Z AUTO 16011KT 10SM OVC022 M14/M17 A2999 RMK AO2
METAR KMNH 181206Z AUTO 16012KT 10SM OVC024 M14/M17 A2999 RMK AO2
METAR KMNH 181148Z AUTO 16012KT 7SM -SN OVC026 M14/M16 A2998 RMK AO2

METAR KFMM 181235Z AUTO 11004KT 7SM -SN M16/M20 A3022 RMK AO2
       T11571205
METAR KFMM 181215Z AUTO 11004KT 10SM -SN M16/M20 A3022 RMK AO2
       T11561205
METAR KFMM 181155Z AUTO 10004KT 10SM -SN M16/M20 A3021 RMK AO2 T11561205
       11140 21157

METAR KSTK 181230Z AUTO 00000KT 3SM -SN SCT029 SCT049 OVC070 M15/M18
       A3026 RMK AO2
METAR KSTK 181210Z AUTO 00000KT 4SM -SN BKN060 OVC070 M15/M18 A3026 RMK
       AO2
METAR KSTK 181150Z AUTO 36003KT 10SM -SN OVC060 M15/M18 A3025 RMK
       AO2

SPECI KAKO 181239Z AUTO 35005KT 3SM -SN BR OVC031 M17/M19 A3020 RMK AO2
       P0000 T11671189
SPECI KAKO 181230Z AUTO 35005KT 2 1/2SM -SN OVC025 M17/M19 A3019 RMK AO2
       P0000 T11671194
SPECI KAKO 181212Z AUTO 33004KT 1 3/4SM -SN OVC022 M17/M19 A3019 RMK AO2
       P0000 T11671194

METAR KLIC 181155Z AUTO 10003KT 10SM OVC048 M15/M17 A3013 RMK AO2 SNE35
       SLP263 P0001 60003 70003 T11501172 11122 21150 51010
SPECI KLIC 181136Z AUTO 00000KT 8SM SCT016 OVC050 M15/M17 A3012 RMK AO2
       SNE35 P0001 T11501172
SPECI KLIC 181125Z AUTO 10003KT 3SM -SN BR BKN018 OVC055 M15/M17 A3012
       RMK AO2 P0001 T11501172

METAR KHEQ 181230Z AUTO 34005KT SCT027 M15/M18 A3030 RMK AO2 PWINO
METAR KHEQ 181210Z AUTO 34007KT CLR M15/M18 A3029 RMK AO2 PWINO
METAR KHEQ 181150Z AUTO 33007KT SCT080 M15/M18 A3029 RMK AO2 PWINO

METAR K2V6 181234Z AUTO 36003KT 4SM -SN OVC065 M16/M18 A3025 RMK AO2
METAR K2V6 181214Z AUTO 02004KT 4SM -SN SCT020 BKN029 OVC065 M16/M18
       A3025 RMK AO2
METAR K2V6 181149Z AUTO 36005KT 5SM -SN SCT015 BKN027 OVC036 M16/M18
       A3025 RMK AO2

METAR K2V5 181235Z AUTO 33005KT 7SM -SN BKN050 OVC065 M14/M18 A3030 RMK
       AO2
METAR K2V5 181215Z AUTO 35004KT 10SM BKN050 OVC065 M14/M18 A3031 RMK
       AO2
METAR K2V5 181155Z AUTO 36005KT 10SM SCT055 OVC065 M14/M18 A3030 RMK
       AO2

SPECI KITR 181222Z AUTO 01007KT 4SM -SN OVC039 M14/M17 A3023 RMK AO2
       P0000 T11441172
SPECI KITR 181211Z AUTO 36006KT 2SM -SN OVC031 M14/M17 A3024 RMK AO2
       P0000 T11441172
METAR KITR 181153Z AUTO 36008KT 1 1/2SM -SN OVC021 M14/M17 A3023 RMK
        AO2 SLP289 P0000 60000 T11441172 11128 21144 53013

Sunrise/Sunset for 02/18/2019
Fort Collins - 06:49:53 MST / 17:38:31 MST
Denver       - 06:48:20 MST / 17:39:12 MST
Sterling     - 06:42:36 MST / 17:30:58 MST

Denver/Boulder (KFTG) 02/18/19 12:36 UTC
Radar VAD winds      Height      Dir/Spd(kt)
                  11000 FT MSL...169/020
                  10000 FT MSL...198/020
                  10000 FT MSL...201/020
                   9000 FT MSL...194/017
                   8900 FT MSL...191/017
                   8100 FT MSL...174/015
                   8000 FT MSL...179/017
                   7300 FT MSL...154/014
                   7000 FT MSL...145/018
                   6600 FT MSL...136/013
                   6200 FT MSL...118/019
                   6000 FT MSL...115/018
                   5900 FT MSL...110/018

Denver/Boulder Aviation Discussion
Issued at 1209 UTC Monday, February 18, 2019

.AVIATION...(For the 12Z TAFS through 12Z Tuesday morning)
Issued at 509 AM MST Mon Feb 18 2019
Light snow will diminish this morning with little or no
accumulation. MVFR ceilings with areas of IFR should improve by
18z, though higher ceilings will likely still require instrument
approaches to KDEN during the day. Light snow is likely again
tonight, with MVFR conditions and areas of IFR possible after 04z
and likely after 08z. The snow will continue Tuesday morning, then
diminish. Likely accumulation in the Denver area for Monday night
into Tuesday is 1 to 3 inches.


* * * * * Southeast Colorado * * * * *

METAR K4BM 181235Z AUTO 23005KT 2 1/2SM -SN OVC012 A2976 RMK AO2 LTG
       DSNT N
METAR K4BM 181212Z AUTO 00000KT 2 1/2SM -SN SCT007 OVC012 A2976 RMK AO2
       LTG DSNT N AND NW
METAR K4BM 181154Z AUTO 00000KT 2SM -SN BKN007 OVC012 A2976 RMK AO2
        LTG DSNT N AND NW

SPECI KAFF 181234Z AUTO 16011KT 4SM BLSN OVC002 M14/M16 A3002 RMK AO2
       SLP239
SPECI KAFF 181219Z AUTO 17010KT 5SM -SN OVC002 M14/M16 A3002 RMK AO2
       SLP233
SPECI KAFF 181209Z AUTO 16009KT 4SM -SN OVC002 M14/M16 A3002 RMK AO2
       SLP233

KCOS 181141Z 1812/1912 14010KT 3SM -SN BR SCT015 OVC030
      TEMPO 1812/1814 1SM -SN BR BKN015
     FM181800 15012KT P6SM VCSH BKN015
     FM182000 16014KT P6SM BKN020
     FM190300 15008KT 3SM -SN BR OVC010
SPECI KCOS 181224Z 15013KT 1 1/2SM -SN BR OVC024 M14/M16 A3006 RMK AO2
       P0000 T11391156
METAR KCOS 181154Z 16012KT 1 1/2SM -SN BR OVC025 M13/M14 A3006 RMK AO2
       SFC VIS 2 SLP249 4/001 P0000 60006 70006 T11331144 11072
       21133 53006
METAR KCOS 181054Z 15010KT 1 1/2SM -SN BR BKN026 OVC033 M13/M14 A3005
       RMK AO2 SFC VIS 3 SLP239 P0001 T11331144


METAR KFLY 181235Z AUTO 17014KT 3SM -SN OVC009 M15/M17 A3002 RMK AO2
       T11501166
METAR KFLY 181215Z AUTO 16012G15KT 4SM -SN SCT009 OVC020 M15/M16 A3002
       RMK AO2 T11491165
METAR KFLY 181155Z AUTO 17007KT 4SM -SN OVC020 M15/M16 A3002 RMK AO2
       T11481165 11097 21148

KFCS 1811/1911 16009KT 4800 -SN BKN002 OVC020 620029 QNH3001INS
     TEMPO 1811/1816 BKN005 OVC015 620059
     BECMG 1819/1820 16012KT 9999 VCSH BKN020 OVC040 610209
     QNH2999INS
     TEMPO 1820/1900 16012G18KT
     BECMG 1903/1904 16009KT 6000 -SN OVC010 620109 QNH3001INS
     TXM05/1818Z TNM14/1814Z
METAR KFCS 181158Z 18010KT 6SM -SN BR OVC003 M13/M15 A3007 RMK AO2A
       SLP262 P0000 60000 4/001 T11301149 11075 21130 52006
SPECI KFCS 180913Z 19009KT 3SM -SN BR BKN003 OVC020 M11/M13 A3005 RMK
        AO2A SLP244
METAR KFCS 181058Z 19009KT 7SM SN OVC002 M13/M15 A3006 RMK AO2A
       SNE41SNB49 SLP258 P0000 T11271146

KPUB 181141Z 1812/1912 13008KT 5SM BR SCT015 OVC030
      TEMPO 1812/1814 2SM -SN BR SCT008 OVC015
     FM181400 12006KT P6SM VCSH SCT010 OVC025
     FM181800 10008KT P6SM VCSH BKN030
     FM190200 09010KT 3SM -SN BR OVC010
SPECI KPUB 181233Z AUTO 12007KT 2 1/2SM -SN BR OVC021 M11/M13 A3018 RMK
       AO2 P0001 T11111133
SPECI KPUB 181200Z AUTO 10005KT 1 3/4SM -SN BR OVC029 M11/M13 A3017 RMK
       AO2 P0000 T11061128
METAR KPUB 181153Z AUTO 10006KT 2 1/2SM -SN BR BKN033 OVC055 M11/M13
       A3017 RMK AO2 SLP248 P0000 60005 70005 T11061128 11050 21106
       53010


SPECI KTAD 181241Z AUTO 08008KT 4SM -SN BR OVC031 M13/M14 A3009 RMK AO2
       P0000 T11331144 $
SPECI KTAD 181214Z AUTO 08011KT 3SM -SN BR OVC024 M12/M14 A3008 RMK AO2
       P0000 T11221139 $
METAR KTAD 181154Z AUTO 07011KT 2SM -SN BR OVC020 M12/M13 A3008 RMK AO2
       SNE21B35 SLP216 P0000 60004 70004 T11221133 11039 21122 53016
       $

SPECI KLHX 181202Z AUTO 09006KT 1 1/4SM -SN BR OVC015 M11/M13 A3023 RMK
       AO2 P0000 T11111133
METAR KLHX 181153Z AUTO 09008KT 1SM -SN BR VV013 M11/M13 A3023 RMK AO2
       SLP266 P0001 60004 70004 T11111133 11078 21111 53011
SPECI KLHX 181134Z AUTO 09007KT 1SM -SN BR VV018 M11/M13 A3022 RMK AO2
       P0000 T11111133

SPECI KLAA 181228Z AUTO 07005KT 1SM -SN BR VV014 M12/M14 A3026 RMK AO2
       P0000 T11221144
SPECI KLAA 181221Z AUTO 06006KT 1 1/4SM -SN BR OVC018 M12/M14 A3026 RMK
       AO2 P0000 T11221144
METAR KLAA 181153Z AUTO 05005KT 2SM -SN BR OVC023 M12/M14 A3026 RMK AO2
       SLP283 P0000 60003 70003 T11221144 11083 21122 53012

METAR KSPD 181156Z AUTO 05009KT M13/M14 A3019 RMK AO1 SLP254 60008 70008
       T11331144 11089 21133 53009
METAR KSPD 181056Z AUTO 07008KT M13/M13 A3017 RMK AO1 SLP241 P0001
       T11281133
METAR KSPD 180956Z AUTO 06012KT M12/M13 A3016 RMK AO1 SLP234 P0004
       T11221133

Sunrise/Sunset for 02/18/2019
Burlington - 06:37:01 MST / 17:29:00 MST
Pueblo     - 06:45:03 MST / 17:39:45 MST
Lamar      - 06:36:49 MST / 17:31:58 MST

Pueblo (KPUX) 02/18/19 12:29 UTC
Radar VAD winds      Height      Dir/Spd(kt)
                  21000 FT MSL...232/021
                  20000 FT MSL...229/020
                  19000 FT MSL...215/022
                  18000 FT MSL...234/022
                  17000 FT MSL...235/022
                  16000 FT MSL...235/020
                  15000 FT MSL...228/022
                  14000 FT MSL...247/026
                  13200 FT MSL...202/030
                  13000 FT MSL...195/028
                  12000 FT MSL...183/022
                  11600 FT MSL...186/025
                  11000 FT MSL...196/018
                  10000 FT MSL...187/019
                   9900 FT MSL...185/020
                   9000 FT MSL...171/015
                   8100 FT MSL...146/009
                   8000 FT MSL...140/008
                   7000 FT MSL...148/006
                   6400 FT MSL...134/007
                   6300 FT MSL...139/007
                   6000 FT MSL...136/008
                   5700 FT MSL...123/009

Pueblo Aviation Discussion
Issued at 1140 UTC Monday, February 18, 2019

.AVIATION...(For the 12Z TAFS through 12Z Tuesday morning)
Issued at 352 AM MST Mon Feb 18 2019
MVFR and IFR conditions expected at COS and PUB through the morning,
with additional accumulations of up to 1 inch at the terminals. MVFR
to low VFR cigs expected through the late afternoon before another
round of light snow spreads across the terminals by 03z.
Mainly VFR conditions expected at ALS through the morning, with MVFR
and IFR conditions and snow developing later this afternoon, which
persists through the overnight hours.


* * * * * Northwest Colorado * * * * *

METAR KCAG 181153Z AUTO 01003KT 5SM -SN BR OVC042 M12/M14 A2985 RMK AO2
       SNB11 SLP174 P0000 60000 T11221144 11106 21161 53006
METAR KCAG 181053Z AUTO 00000KT 10SM OVC048 M12/M16 A2984 RMK AO2 SLP164
       T11221161
METAR KCAG 180953Z AUTO 25004KT 10SM BKN075 M16/M18 A2983 RMK AO2 SLP170
       T11561183

METAR KHDN 181156Z AUTO 04004KT 9SM FEW019 BKN039 OVC048 M12/M16 A2984
       RMK AO2 SNB25E51 SLP169 P0000 60000 T11221161 11100 21128
       53004 FZRANO
SPECI KHDN 181145Z AUTO 00000KT 8SM -SN FEW019 BKN030 OVC048 M12/M16
       A2984 RMK AO2 SNB25 P0000 FZRANO
SPECI KHDN 181130Z AUTO 29003KT 9SM -SN SCT023 BKN029 OVC045 M12/M16
       A2983 RMK AO2 SNB25 P0000 FZRANO

METAR KSBS 181235Z AUTO 00000KT 10SM BKN050 OVC070 M14/M17 A2981 RMK AO1
       T11441166
METAR KSBS 181215Z AUTO 00000KT 10SM SCT018 BKN050 OVC075 M14/M17 A2981
       RMK AO1 T11441170
METAR KSBS 181155Z AUTO 31004KT 5SM SCT015 BKN021 OVC035 M14/M16 A2981
       RMK AO1 T11371165 11132 21154

METAR KC07 181224Z AUTO 19005KT 10SM BKN025 BKN038 OVC050 M16/M17 A2969
       RMK AO2
METAR KC07 181206Z AUTO 19005KT 10SM SCT028 SCT037 OVC050 M16/M17 A2969
       RMK AO2
METAR KC07 181148Z AUTO 17004KT 10SM SCT029 BKN047 OVC050 M16/M17 A2969
       RMK AO2

METAR K33V 181235Z AUTO 17003KT 10SM SCT050 SCT070 BKN090 M22/M26 A2982
       RMK AO1
METAR K33V 181215Z AUTO 14003KT 10SM CLR M23/M26 A2981 RMK AO1
METAR K33V 181155Z AUTO 00000KT 10SM CLR M23/M26 A2981 RMK AO1

METAR KEEO 181153Z AUTO 03004KT 10SM FEW038 BKN049 BKN060 M09/M14 A2982
       RMK AO2 SLP135 T10941139 11078 21106 53005
METAR KEEO 181053Z AUTO 00000KT 10SM BKN060 OVC075 M09/M14 A2981 RMK AO2
       SLP126 T10891139
METAR KEEO 180953Z AUTO 21004KT 10SM OVC065 M09/M14 A2981 RMK AO2 SLP122
       T10891139

METAR K20V 181230Z AUTO 00000KT 7SM CLR M20/M21 A2986 RMK AO2
METAR K20V 181212Z AUTO 00000KT 10SM CLR M21/M22 A2986 RMK AO2
METAR K20V 181154Z AUTO 00000KT 10SM CLR M20/M22 A2986 RMK AO2

METAR KGNB 181230Z AUTO 11003KT 10SM CLR M21/M23 A2982 RMK AO2
       T12061229
METAR KGNB 181205Z AUTO 12003KT 10SM CLR M20/M22 A2981 RMK AO2
       T11971218
METAR KGNB 181145Z AUTO 14003KT 10SM SCT090 SCT110 M20/M22 A2981 RMK AO2
       T11961218

METAR K0CO 181242Z AUTO 24022KT CLR M21/M27 A2964 RMK AO2 PWINO
METAR K0CO 181225Z AUTO 23015G18KT SCT120 M20/M26 A2964 RMK AO2
       PWINO
METAR K0CO 181206Z AUTO 18011G17KT CLR M21/M26 A2964 RMK AO2 PWINO

KGJT 181140Z 1812/1912 08007KT P6SM VCSH FEW035 SCT045 BKN070
      TEMPO 1812/1814 5SM -SN BKN035
     FM181400 11006KT P6SM VCSH SCT035 BKN070
     FM181900 32005KT P6SM BKN060 OVC090
     FM182100 02005KT P6SM -SNRA BKN040 OVC070
     FM190100 04007KT P6SM VCSH SCT040 BKN070
     FM190600 VRB04KT P6SM VCSH BKN035 OVC050
SPECI KGJT 181225Z AUTO 08004KT 1/2SM R11/1800V5000FT FZFG VV001 M06/M07
       A2986 RMK AO2 I1000 T10611067
SPECI KGJT 181218Z AUTO 04003KT 1SM R11/1800VP6000FT BR VV001 M06/M07
       A2986 RMK AO2 T10611072
SPECI KGJT 181216Z AUTO 03005KT 2 1/2SM R11/2000VP6000FT BR SCT001
       M06/M07 A2986 RMK AO2 T10611072

KRIL 181140Z 1812/1912 00000KT P6SM VCSH BKN070 BKN100
     FM182200 31007KT P6SM VCSH SCT035 BKN050
     FM190300 VRB04KT P6SM VCSH BKN030 OVC040
     FM190800 VRB04KT P6SM BKN015 OVC045
METAR KRIL 181153Z AUTO 17005KT 10SM OVC065 M06/M10 A2985 RMK AO2 SLP132
        T10561100 11044 21067 53008 $
METAR KRIL 181053Z AUTO 00000KT 10SM BKN070 BKN100 M06/M10 A2984 RMK AO2
       SLP124 T10561100 $
METAR KRIL 180953Z AUTO 27005KT 10SM BKN080 BKN100 M06/M10 A2983 RMK AO2
       SLP121 T10561100

METAR K5SM 181230Z AUTO 7SM -SN SCT008 M17/M19 A2975 RMK AO2
METAR K5SM 181212Z AUTO 7SM -SN BKN008 M16/M18 A2974 RMK AO2
METAR K5SM 181154Z AUTO 10SM SCT005 SCT010 SCT013 M16/M18 A2973 RMK
       AO2

KEGE 181201Z 1812/1912 08007KT P6SM VCSH FEW050 OVC070
     FM182200 26005KT P6SM VCSH SCT035 BKN050
     FM190300 VRB03KT P6SM VCSH BKN030 OVC040
     FM190800 VRB03KT P6SM SCT035 BKN050
METAR KEGE 181156Z AUTO 14004KT 10SM BKN075 M13/M16 A2987 RMK AO2 SLP183
       T11281161 11072 21128 53005 FZRANO
METAR KEGE 181056Z AUTO 08007KT 10SM FEW050 OVC075 M12/M16 A2986 RMK AO2
       SLP169 T11221156 FZRANO
METAR KEGE 180956Z AUTO 11004KT 10SM FEW120 M12/M15 A2986 RMK AO2 SLP174
       T11171150 FZRANO

KASE 181140Z 1812/1912 23004KT P6SM SCT060 BKN110
     FM181900 31006KT P6SM VCSH SCT050 BKN080
     FM190000 27005KT P6SM VCSH BKN025 OVC045
     FM190600 19005KT P6SM BKN035 OVC050
METAR KASE 181153Z AUTO 21005KT 10SM CLR M17/M21 A2977 RMK AO2 SLP127
       T11721206 11072 21172 53005
METAR KASE 181053Z AUTO 23004KT 10SM CLR M14/M18 A2976 RMK AO2 SLP108
       T11441183
METAR KASE 180953Z AUTO 20007KT 10SM CLR M12/M18 A2974 RMK AO2 SLP094
       T11171178

METAR KCCU 181236Z AUTO 18012KT 10SM BKN110 M15/M21 A2968 RMK AO2
METAR KCCU 181212Z AUTO 17014KT 10SM BKN110 M15/M21 A2967 RMK AO2
METAR KCCU 181154Z AUTO 10SM OVC100 M15/M21 A2966 RMK AO2

SPECI KLXV 181240Z AUTO 36003KT 8SM BKN010 BKN022 M19/M21 A2976 RMK AO2
       T11941211
SPECI KLXV 181232Z AUTO 01003KT 7SM SCT010 BKN022 M19/M21 A2976 RMK AO2
       T11941211
SPECI KLXV 181202Z AUTO 00000KT 10SM SCT013 M18/M21 A2975 RMK AO2
       T11831206

Sunrise/Sunset for 02/18/2019
Rangely           - 07:04:05 MST / 17:53:59 MST
Grand Junction    - 07:01:51 MST / 17:54:24 MST
Steamboat Springs - 06:56:47 MST / 17:45:38 MST

Grand Junction (KGJX) 02/18/19 12:29 UTC
Radar VAD winds      Height      Dir/Spd(kt)
                  25000 FT MSL...280/000
                  22000 FT MSL...180/012
                  17000 FT MSL...227/005
                  13000 FT MSL...219/014
                  12000 FT MSL...175/013
                  11100 FT MSL...221/012
                  11000 FT MSL...187/012
                  11000 FT MSL...191/014
                  10400 FT MSL...177/011

Grand Junction Aviation Discussion
Issued at 1017 UTC Monday, February 18, 2019

.AVIATION...(For the 12Z TAFS through 12Z Tuesday morning)
Issued at 306 AM MST Mon Feb 18 2019
Widespread mountain obscuration with CIGS below ILS breakpoints
will prevail for the next 24 hours. Periodic MVFR, IFR and brief
LIFR conditions are expected at all TAF sites near and south of
Interstate 70.


* * * * * Southwest Colorado * * * * *

METAR KAJZ 181235Z AUTO 00000KT 10SM CLR M03/M06 A2987 RMK AO2
       T10271060
METAR KAJZ 181215Z AUTO 30004KT 10SM SCT120 M03/M06 A2988 RMK AO2
       T10271060
METAR KAJZ 181155Z AUTO 27003KT 10SM CLR M02/M07 A2987 RMK AO2 T10181070
       10000 21023

KMTJ 181140Z 1812/1912 13008KT P6SM SCT060 BKN100
     FM181900 34005KT 5SM -SN BKN045 OVC080
     FM190000 13006KT P6SM VCSH OVC030
     FM190600 12005KT P6SM VCSH BKN025 OVC035
METAR KMTJ 181153Z AUTO 10004KT 10SM CLR M06/M12 A2988 RMK AO2 SLP127
       T10611117 11033 21061 53003
METAR KMTJ 181053Z AUTO 13008KT 10SM CLR M05/M11 A2985 RMK AO2 SLP114
       T10501111
METAR KMTJ 180953Z AUTO 09008KT 10SM CLR M04/M12 A2987 RMK AO2 SLP119
       T10441122

METAR KGUC 181056Z AUTO 21004KT 10SM CLR M21/M23 A2986 RMK AO2 SLP248
       T12111228 FZRANO
METAR KGUC 180956Z AUTO 00000KT 10SM SCT070 M18/M21 A2985 RMK AO2 SLP225
       T11831206 FZRANO

METAR K7BM 181224Z AUTO 00000KT 7SM -SN SCT018 BKN034 OVC044 M15/M17
       A2980 RMK AO2
METAR K7BM 181230Z AUTO 00000KT 7SM -SN SCT015 BKN029 OVC040 M15/M17
       A2981 RMK AO2
METAR K7BM 181206Z AUTO 00000KT 4SM -SN SCT013 BKN031 OVC039 M15/M17
       A2980 RMK AO2

METAR KAEJ 181235Z AUTO 12008KT 2 1/2SM -SN SCT012 BKN018 OVC060 M14/M16
       A2991 RMK AO2 T11421164
METAR KAEJ 181215Z AUTO 12008KT 2 1/2SM -SN SCT008 BKN012 OVC022 M13/M16
       A2991 RMK AO2 T11351156
METAR KAEJ 181155Z AUTO 11009KT 1SM -SN OVC006 M13/M15 A2990 RMK AO2
       T11271147 11077 21127

METAR KANK 181235Z AUTO 11006KT 1SM OVC006 M12/M14 A3001 RMK AO1
       T11231141
METAR KANK 181215Z AUTO 10006KT 2SM OVC008 M12/M14 A3001 RMK AO1
       T11201140
METAR KANK 181155Z AUTO 10007KT 1 1/2SM OVC008 M12/M14 A3000 RMK AO1
        T11181137 11061 21118

METAR KMYP 181231Z AUTO SCT003 BKN013 OVC029 M17/M20 A2980 RMK AO2
       PWINO
METAR KMYP 181214Z AUTO SCT011 BKN021 OVC029 M17/M20 A2980 RMK AO2
       PWINO
METAR KMYP 181155Z AUTO M17/M19 A2980 RMK AO2 PWINO

METAR KAIB 181235Z AUTO 11009KT 10SM OVC060 M06/M10 A2988 RMK AO2
METAR KAIB 181215Z AUTO 11005KT 10SM SCT065 BKN070 M07/M10 A2988 RMK
       AO2
METAR KAIB 181155Z AUTO 10006KT 10SM CLR M07/M10 A2988 RMK AO2

KTEX 181140Z 1812/1912 13008KT P6SM SCT090 BKN120
     FM181500 16005KT 3SM -SN BR BKN015 OVC025
     FM182100 17009KT 5SM -SN BKN025 OVC030
     FM190300 15005KT 2SM -SN BR OVC010
     FM190600 16004KT 5SM -SN SCT015 BKN030
METAR KTEX 181235Z AUTO 12006KT 10SM CLR M12/M17 A2976 RMK AO2
METAR KTEX 181215Z AUTO 13005KT 10SM CLR M11/M18 A2976 RMK AO2
METAR KTEX 181155Z AUTO 06003KT 10SM CLR M12/M17 A2976 RMK AO2

METAR K04V 181238Z AUTO 00000KT 10SM -SN OVC014 M10/M12 A2986 RMK
       AO2
METAR K04V 181214Z AUTO 00000KT 7SM -SN SCT007 BKN015 OVC020 M11/M13
       A2986 RMK AO2
METAR K04V 181154Z AUTO 00000KT 5SM -SN SCT014 OVC020 M11/M13 A2985 RMK
       AO2

METAR KCEZ 181153Z AUTO 06004KT 10SM FEW035 OVC049 M07/M09 A2986 RMK AO2
       SLP131 60000 70010 T10721094 11072 21122 56005
SPECI KCEZ 181137Z AUTO 05005KT 10SM SCT028 SCT037 OVC050 M08/M10 A2986
       RMK AO2 T10781100
SPECI KCEZ 181129Z AUTO 07003KT 10SM BKN028 BKN036 OVC049 M07/M10 A2986
       RMK AO2 T10721100

KDRO 181140Z 1812/1912 13005KT P6SM VCSH SCT013 BKN025
     FM181300 VRB04KT 5SM -SHSN SCT013 OVC025
      TEMPO 1813/1816 1SM -SN BR SCT007 OVC012
     FM181600 14004KT P6SM VCSH SCT020 BKN035
     FM181900 14007KT 2SM -SN BKN015 OVC025
     FM190600 VRB03KT 1 1/2SM -SN BR OVC012
SPECI KDRO 181235Z AUTO 13005KT 10SM OVC014 M06/M07 A2987 RMK AO2
       T10611067
SPECI KDRO 181222Z AUTO 11004KT 10SM OVC015 M06/M07 A2987 RMK AO2
       T10611067
METAR KDRO 181153Z AUTO 12006KT 10SM OVC014 M06/M07 A2986 RMK AO2 SLP155
       60004 70019 T10611067 11056 21083 55001

METAR KPSO 181235Z AUTO 00000KT 10SM -SN OVC044 M07/M07 A2987 RMK AO2
       T10701070
METAR KPSO 181215Z AUTO 14003KT 10SM -SN SCT007 SCT012 OVC044 M07/M07
       A2987 RMK AO2 T10701070
METAR KPSO 181155Z AUTO 00000KT 7SM -SN SCT007 BKN012 OVC037 M07/M07
       A2986 RMK AO2 LTG DSNT E 7//// T10671068 11060 21068

METAR KCPW 181230Z AUTO 19012G18KT M17/M18 A2976 RMK AO2 PWINO
METAR KCPW 181206Z AUTO 19016G19KT BKN002 BKN009 OVC016 M17/M18 A2976
       RMK AO2 PWINO
METAR KCPW 181148Z AUTO 20014G21KT OVC002 M17/M18 A2977 RMK AO2
       PWINO

KALS 181141Z 1812/1912 13008KT P6SM VCSH SCT020 OVC040
     FM181700 17015KT P6SM VCSH SCT020 BKN030
     FM182000 20012G24KT P6SM VCSH BKN035
     FM190400 14014KT 3SM -SN BR SCT010 BKN020
METAR KALS 181152Z AUTO 17011KT 10SM CLR M09/M12 A2984 RMK AO2 SLP139
       70001 I6000 T10941122 11078 21111 53002
METAR KALS 181052Z AUTO 14008KT 10SM CLR M11/M13 A2984 RMK AO2 SLP141
       T11061128
METAR KALS 180952Z AUTO 15010KT 10SM CLR M09/M12 A2983 RMK AO2 SLP135
       T10941117

Sunrise/Sunset for 02/18/2019
Vail    - 06:53:48 MST / 17:44:54 MST
Durango - 06:56:49 MST / 17:53:58 MST
Alamosa - 06:49:04 MST / 17:45:45 MST

Grand Junction (KGJX) 02/18/19 12:29 UTC
Radar VAD winds      Height      Dir/Spd(kt)
                  25000 FT MSL...280/000
                  22000 FT MSL...180/012
                  17000 FT MSL...227/005
                  13000 FT MSL...219/014
                  12000 FT MSL...175/013
                  11100 FT MSL...221/012
                  11000 FT MSL...187/012
                  11000 FT MSL...191/014
                  10400 FT MSL...177/011

Grand Junction Aviation Discussion
Issued at 1017 UTC Monday, February 18, 2019

.AVIATION...(For the 12Z TAFS through 12Z Tuesday morning)
Issued at 306 AM MST Mon Feb 18 2019
Widespread mountain obscuration with CIGS below ILS breakpoints
will prevail for the next 24 hours. Periodic MVFR, IFR and brief
LIFR conditions are expected at all TAF sites near and south of
Interstate 70.


* * * * * Arizona * * * * *

KPGA 181232Z 1813/1912 VRB05KT 2SM -SHSN SCT007 OVC015
      TEMPO 1813/1817 1SM -SN BR OVC007
     FM181800 23011KT 4SM -SHSN BR SCT015 OVC025
     FM182200 26011KT P6SM SCT025 BKN035
METAR KPGA 181153Z AUTO 13003KT 1/2SM SN FZFG VV007 M01/M02 A2979 RMK
       AO2 SLP086 P0005 60007 70007 T10111017 10011 21011 58002
       TSNO
SPECI KPGA 181149Z AUTO 10003KT 1/2SM SN FZFG VV008 M01/M02 A2979 RMK
       AO2 P0005 TSNO
SPECI KPGA 181139Z AUTO 08003KT 1/2SM SN FZFG VV010 M01/M02 A2979 RMK
       AO2 P0003 T10111017 TSNO

SPECI KRQE 181221Z AUTO 14008KT 1 1/4SM -SN BR OVC027 M05/M07 A2983 RMK
       AO2 P0000 T10501072
SPECI KRQE 181213Z AUTO 14006KT 2SM -SN BR OVC027 M05/M07 A2983 RMK AO2
       P0000 T10501072
METAR KRQE 181153Z AUTO 13006KT 4SM -SN BR OVC034 M05/M07 A2983 RMK AO2
       SNB24 SLP095 P0000 60001 70011 T10501067 11039 21072
       56013

Flagstaff (KFSX) 02/18/19 12:36 UTC
Radar VAD winds      Height      Dir/Spd(kt)
                  17000 FT MSL...227/045
                  16400 FT MSL...226/047
                  16000 FT MSL...225/045
                  15000 FT MSL...225/046
                  14500 FT MSL...225/045
                  14000 FT MSL...226/045
                  13000 FT MSL...227/044
                  13000 FT MSL...228/044
                  12000 FT MSL...227/043
                  11800 FT MSL...232/043
                  11000 FT MSL...233/043
                  10800 FT MSL...234/042
                  10000 FT MSL...233/040
                  10000 FT MSL...233/040
                   9200 FT MSL...234/037
                   9000 FT MSL...232/037
                   8500 FT MSL...232/034
                   8100 FT MSL...235/034
                   8000 FT MSL...230/031
                   7800 FT MSL...235/032

Flagstaff Aviation Discussion
Issued at 1005 UTC Monday, February 18, 2019

.AVIATION...For the 12Z Package...Expect widespread snow
with MVFR and IFR across northern Arizona through 06z Tues.
Precipitation coverage should slowly decrease northwest to southeast
after 06Z Tues, low clouds to stick around. Aviation discussion not
updated for TAF amendments.


* * * * * Utah * * * * *

KSLC 181135Z 1812/1918 13005KT P6SM SCT030 BKN050
     FM181500 16006KT P6SM SCT050 BKN080
     FM181800 32008KT P6SM SCT060 BKN100
     FM191000 16005KT P6SM SCT040 BKN100
METAR KSLC 181154Z COR 14006KT 10SM FEW027 FEW038 BKN070 M04/M10 A2988
       RMK AO2 SLP136 4/001 60000 70004 T10441100 11011 21044
       55000
METAR KSLC 181154Z 14006KT 10SM FEW027 FEW038 BKN070 M04/M10 A2988 RMK
       AO2 SLP136 60000 70004 T10441100 11011 21044 55000
SPECI KSLC 181136Z 14006KT 10SM SCT027 SCT038 BKN070 M04/M10 A2988 RMK
       AO2 T10391100

KVEL 181140Z 1812/1912 03004KT 2SM -SN BR OVC030
      TEMPO 1812/1814 P6SM -SN SCT020 BKN035
     FM181400 05005KT P6SM VCSH BKN030 OVC050
     FM190100 04004KT P6SM SCT050 BKN080
SPECI KVEL 181242Z AUTO 17003KT 2 1/2SM -SN BR OVC027 M08/M10 A2989 RMK
       AO2 P0000 T10781100
METAR KVEL 181153Z AUTO 00000KT 3SM -SN OVC034 M06/M09 A2988 RMK AO2
        SLP148 P0000 60004 70004 T10611089 11061 21083 53002
SPECI KVEL 181119Z AUTO 01005KT 4SM -SN BR OVC031 M06/M08 A2987 RMK AO2
       P0000 T10611083

METAR KPUC 181153Z AUTO 00000KT 10SM OVC036 M09/M10 A2981 RMK AO2 SLP157
       T10891100 11083 21128 53002 $
METAR KPUC 181053Z AUTO 00000KT 10SM OVC031 M09/M11 A2981 RMK AO2 SLP152
       T10891106 $

KCNY 181140Z 1812/1912 27003KT P6SM SCT060 BKN130
     FM181500 VRB04KT 5SM -SN SCT020 BKN040
     FM181900 03005KT P6SM SCT030 BKN080
     FM190100 04007KT P6SM VCSH BKN015 OVC035
METAR KCNY 181153Z AUTO 27003KT 10SM FEW020 M08/M08 A2984 RMK AO2 SLP132
       60002 70004 T10781083 11017 21089 58006
METAR KCNY 181053Z AUTO 27003KT 10SM CLR M06/M07 A2985 RMK AO2 SLP135
       T10611072
METAR KCNY 180953Z AUTO 21005KT 10SM FEW021 FEW060 M07/M07 A2986 RMK AO2
       SLP136 T10721072


Salt Lake City (KMTX) 02/18/19 12:39 UTC
Radar VAD winds      Height      Dir/Spd(kt)
                  22000 FT MSL...094/014
                  20000 FT MSL...073/015
                  19000 FT MSL...079/007
                  17800 FT MSL...061/005
                  17000 FT MSL...089/007
                  16000 FT MSL...073/006
                  15500 FT MSL...060/005
                  15000 FT MSL...099/007
                  14000 FT MSL...082/006
                  13600 FT MSL...079/006
                  13000 FT MSL...106/006
                  12100 FT MSL...081/005
                  12000 FT MSL...077/005
                  11000 FT MSL...089/006
                  10900 FT MSL...093/006
                  10000 FT MSL...145/007
                   9900 FT MSL...147/006
                   9000 FT MSL...096/006
                   9000 FT MSL...093/006
                   8300 FT MSL...100/007
                   8000 FT MSL...099/006
                   7600 FT MSL...102/005
                   7100 FT MSL...075/006
                   7000 FT MSL...082/006
                   6900 FT MSL...066/007

Salt Lake City Aviation Discussion
Issued at 1230 UTC Monday, February 18, 2019

.AVIATION...Mid level VFR ceilings hovering near/just below crest
level are expected to continue through the 14-16Z timeframe at the
KSLC terminal. Over the course of the day, a general reduction in
cloud cover is expected with ceilings remaining above 8kft after 16Z
and a 30% chance of the skies scattering out entirely. A southerly
wind currently in place should become northerly between 17-19Z.


* * * * * Wyoming * * * * *

KEVW 181135Z 1812/1912 06011KT 1SM -SN BR SCT006 OVC012
     FM181400 06008KT P6SM SCT030 OVC040
     FM181800 05008KT P6SM SCT060 BKN150
     FM190500 05008KT P6SM SCT012 BKN030=
SPECI KEVW 181230Z AUTO 07011KT 3/4SM -SN OVC026 M14/M18 A2983 RMK AO2
       P0000 T11441178 $
SPECI KEVW 181225Z AUTO 07012KT 1 1/4SM -SN OVC030 M14/M18 A2983 RMK AO2
       P0000 T11441178 $
SPECI KEVW 181214Z AUTO 06010KT 1 1/4SM -SN OVC026 M14/M17 A2983 RMK AO2
       P0000 T11441172 $

KRKS 181132Z 1812/1912 06015KT P6SM VCSH BKN015
     FM181900 07011KT P6SM SCT030 BKN060
     FM190200 06008KT P6SM SCT050 BKN100
METAR KRKS 181154Z AUTO 08012KT 6SM HZ OVC013 M15/M18 A2989 RMK AO2
       SLP200 60000 T11501178 11150 21167 53001
METAR KRKS 181054Z AUTO 06013G20KT 4SM BR OVC012 M15/M17 A2989 RMK AO2
       SNE19 SLP190 P0000 T11501172
SPECI KRKS 181004Z AUTO 05012KT 4SM -SN BR OVC014 M16/M17 A2988 RMK AO2
       P0000 T11561172

KRWL 181151Z 1812/1912 06013KT P6SM OVC010
      TEMPO 1812/1814 3SM -SN BR
     FM181600 06012KT P6SM OVC020
     FM182200 05010KT P6SM SCT020 BKN070
     FM190800 03007KT P6SM OVC025
SPECI KRWL 181242Z AUTO 07013KT 2SM -SN OVC014 M14/M17 A2990 RMK AO2
       P0000 T11441172
SPECI KRWL 181222Z AUTO 07013KT 1 1/2SM -SN BR OVC013 M14/M17 A2990 RMK
       AO2 P0000 T11441167
METAR KRWL 181153Z AUTO 07014KT 2 1/2SM -SN BR OVC012 M14/M17 A2990 RMK
       AO2 SNB04 SLP192 P0000 60000 T11441167 11139 21150 55001

KLAR 181131Z 1812/1912 15013KT P6SM BKN007
     FM181700 15012KT P6SM SCT006 OVC025
     FM182300 14015KT P6SM OVC050
     FM190500 14015G22KT 4SM BR OVC015
METAR KLAR 181153Z AUTO 14015KT 9SM SCT006 M18/M19 A2988 RMK AO2 SLP196
        60000 I6000 T11781194 11150 21178 53001
SPECI KLAR 181150Z AUTO 14015KT 10SM SCT006 M18/M19 A2988 RMK AO2
METAR KLAR 181053Z AUTO 14013KT 7SM OVC007 M17/M18 A2988 RMK AO2 UPE0954
       SLP192 P0000 I1000 T11671183

KCYS 181131Z 1812/1912 VRB03KT 3SM BR OVC015
     FM181800 16010KT P6SM OVC020
     FM182200 15011KT P6SM SCT015 BKN035
     FM190400 15012KT P6SM OVC014
SPECI KCYS 181208Z AUTO 12004KT 7SM OVC014 M16/M18 A3003 RMK AO2
       T11611183
METAR KCYS 181153Z AUTO 13004KT 9SM OVC015 M16/M18 A3002 RMK AO2 SLP266
       70002 T11611178 11144 21167 55000
METAR KCYS 181053Z AUTO 00000KT 10SM OVC016 M16/M19 A3001 RMK AO2 SLP261
       T11611189

Riverton (KRIW) 02/18/19 12:36 UTC
Radar VAD winds      Height      Dir/Spd(kt)
                  26000 FT MSL...190/001
                  25000 FT MSL...282/002
                  24000 FT MSL...099/001
                  16000 FT MSL...183/002
                  14000 FT MSL...175/001
                   8100 FT MSL...220/001
                   8000 FT MSL...241/001
                   7400 FT MSL...167/001
                   6700 FT MSL...031/003
                   6200 FT MSL...083/008
                   6000 FT MSL...080/008
                   6000 FT MSL...083/008

Cheyenne (KCYS) 02/18/19 12:36 UTC
Radar VAD winds      Height      Dir/Spd(kt)
                  11000 FT MSL...194/018
                   9000 FT MSL...202/015
                   8900 FT MSL...187/030
                   8000 FT MSL...186/007
                   7200 FT MSL...202/005
                   7100 FT MSL...129/004

Riverton Aviation Discussion
Issued at 0925 UTC Monday, February 18, 2019

.AVIATION...12Z Issuance
West of the Continental Divide (KJAC, KRKS, KPNA, KBPI)
Areas of light snow and low clouds will occur in Sweetwater county
until 14Z with MVFR conditions at times. This includes KRKS airport.
Otherwise, VFR conditions will prevail at the terminal sites through
the period. Snow showers will develop over the far west after 22z as
a weather disturbance moves across the area. These snow showers will
end after 06Z Tuesday. VCSH will be introduced into the terminals,
except at KRKS. Some MVFR conditions will occur near the mountains
along with some mountain obscuration.
East of the Continental Divide (KCPR, KCOD, KRIW, KWRL, KLND)
Low VFR and MVFR conditions will continue through the period.
Some light snow or flurries overnight will be ending by 16Z. Higher
terrain will be obscured at times through the period.

Cheyenne Aviation Discussion
Issued at 1217 UTC Monday, February 18, 2019

.AVIATION...(For the 12Z TAFS through 12Z Tuesday morning)
Issued at 517 AM MST mon Feb 18 2019
Sctd MVFR/IFR cigs early this morning should give way to mainly
VFR this afternoon into this evening before becoming mostly MVFR
again later this evening and overnight.  A few snow showers around
as well during the period with light surface winds.


* * * * * Nebraska * * * * *

METAR KIBM 181235Z AUTO 00000KT 7SM -SN SCT031 OVC060 M16/M20 A3017 RMK
       AO2 T11651201
METAR KIBM 181215Z AUTO 01005KT 7SM -SN SCT031 OVC060 M16/M20 A3015 RMK
       AO2 T11651198
METAR KIBM 181155Z AUTO 01003KT 5SM -SN SCT033 OVC060 M16/M20 A3015 RMK
       AO2 T11651200 11163 21176

KSNY 181131Z 1812/1912 35007KT P6SM VCSH OVC035
     FM181800 14010KT P6SM OVC050
     FM190300 14010KT P6SM OVC035
     FM190600 14013KT P6SM OVC015
METAR KSNY 181153Z AUTO 35008KT 5SM -SN OVC070 M17/M20 A3021 RMK AO2
       SLP308 P0000 60000 T11671200 11167 21189 55006
SPECI KSNY 181120Z AUTO 35007KT 3SM -SN OVC033 M17/M20 A3021 RMK AO2
       P0000 T11671200
SPECI KSNY 181107Z AUTO 36008KT 2 1/2SM -SN OVC029 M17/M21 A3021 RMK AO2
       P0000 T11721206

METAR KOGA 181235Z AUTO 35010KT 10SM OVC090 M16/M20 A3029 RMK AO2
       T11651198
METAR KOGA 181215Z AUTO 34009KT 10SM OVC090 M17/M20 A3030 RMK AO2
       T11671200
METAR KOGA 181155Z AUTO 26003KT 10SM OVC090 M17/M20 A3032 RMK AO2
       T11671201 11155 21185

METAR KIML 181153Z AUTO 34007KT 10SM SCT090 M17/M21 A3030 RMK AO2 SLP324
       T11671211 11167 21178 53004
METAR KIML 181053Z AUTO 33007KT 10SM OVC085 M17/M21 A3029 RMK AO2 SLP321
       T11671211
METAR KIML 180953Z AUTO 32009KT 10SM CLR M17/M22 A3028 RMK AO2 SLP314
       T11721217

KMCK 181140Z 1812/1912 30009KT P6SM SCT040 BKN080
     FM182000 06005KT P6SM BKN015
     FM190300 09005KT P6SM BKN008 PROB30 1910/1912 -SN OVC015
METAR KMCK 181153Z AUTO 29007KT 10SM CLR M17/M21 A3036 RMK AO2 SLP334
       T11721206 11150 21178 51016 $
METAR KMCK 181053Z AUTO 31010KT 10SM BKN090 M18/M21 A3033 RMK AO2 SLP327
       T11781211 $
METAR KMCK 180953Z AUTO 29009KT 10SM CLR M17/M21 A3034 RMK AO2 SLP324
       T11721206 $

North Platte (KLNX) 02/18/19 12:35 UTC
Radar VAD winds      Height      Dir/Spd(kt)
                   4000 FT MSL...056/002

North Platte Aviation Discussion
Issued at 1117 UTC Monday, February 18, 2019

.AVIATION...(For the 12Z TAFS through 12Z Tuesday morning)
Issued at 517 AM CST Mon Feb 18 2019
Weather camaras in Valentine indicate VFR flight conditions. VFR
is expected throughout wrn and ncntl Nebraska today. Arctic high
pressure centered over the nrn high plains this morning will move
east into the upper Midwest tonight. Southerly return flow will
advect moisture into wrn and ncntl Nebraska tonight resulting in
MVFR/IFR ceilings developing along and south of Interstate 80
around 06z-09z. Snow will then spread north into swrn Nebraska
09z-12z Tuesday morning with IFR becoming widespread.


* * * * * Kansas * * * * *

KGLD 181140Z 1812/1912 35012KT 2SM -SN SCT025 OVC040
      TEMPO 1813/1815 1SM -SN SCT010 OVC020
     FM181800 06008KT P6SM BKN020 OVC050
     FM190100 13010KT P6SM BKN010 OVC020 PROB30 1908/1912 -SN
      OVC010
SPECI KGLD 181236Z AUTO 34009KT 1 3/4SM -SN OVC026 M15/M18 A3028 RMK AO2
       P0001 T11501178 $
SPECI KGLD 181226Z AUTO 34008KT 2SM -SN BR OVC028 M15/M17 A3028 RMK AO2
       P0000 T11501172 $
METAR KGLD 181153Z AUTO 36007KT 1 1/4SM -SN BR OVC022 M16/M18 A3028 RMK
       AO2 SNB27 SLP308 P0001 60001 70001 T11561178 11133 21156
       50013 $

KGCK 181136Z 1812/1912 02010KT 2SM -SN OVC050
     FM181300 02009KT 3SM -SN OVC040
     FM181800 05009KT P6SM OVC030
     FM182000 07010KT P6SM OVC035
METAR KGCK 181154Z AUTO 03007KT 3SM -SN BR BKN033 OVC070 M12/M14 A3033
       RMK AO2 SNB10 SLP308 P0001 60001 70001 T11171139 11094 21122
       53024
SPECI KGCK 181150Z AUTO 02007KT 2SM -SN BR OVC031 M12/M14 A3033 RMK AO2
       SNB10 P0001
SPECI KGCK 181140Z AUTO 02007KT 1SM -SN BR VV017 M12/M14 A3033 RMK AO2
       SNB10 P0001 T11171139

SPECI KLBL 181235Z AUTO 02011KT 7SM -SN SCT013 BKN037 OVC070 M11/M12
       A3031 RMK AO2 P0000 FZRANO
SPECI KLBL 181226Z AUTO 01012KT 4SM -SN BR BKN013 BKN024 OVC038 M11/M12
       A3031 RMK AO2 P0000 FZRANO
SPECI KLBL 181219Z AUTO 01011KT 2 1/2SM -SN BR SCT010 OVC015 M10/M12
       A3031 RMK AO2 VIS 2V4 P0000 FZRANO

METAR KEHA 181235Z AUTO 03009KT 10SM -SN SCT011 OVC037 M09/M11 A3025 RMK
       AO2 T10921110
METAR KEHA 181215Z AUTO 03010KT 10SM -SN SCT011 OVC043 M09/M11 A3025 RMK
       AO2 T10911106
METAR KEHA 181155Z AUTO 03010KT 10SM OVC048 M09/M11 A3023 RMK AO2
       T10911107 11048 21091

Goodland (KGLD) 02/18/19 12:31 UTC
Radar VAD winds      Height      Dir/Spd(kt)
                  22000 FT MSL...239/025
                  20000 FT MSL...232/033
                  19000 FT MSL...231/025
                  18000 FT MSL...227/024
                  17000 FT MSL...238/024
                  16000 FT MSL...231/026
                  15000 FT MSL...237/027
                  14000 FT MSL...241/029
                  13000 FT MSL...239/032
                  12000 FT MSL...231/034
                  11600 FT MSL...229/033
                  11000 FT MSL...222/027
                  10000 FT MSL...216/019
                   9900 FT MSL...216/019
                   9000 FT MSL...209/011
                   8200 FT MSL...206/005
                   8000 FT MSL...172/002
                   7000 FT MSL...040/014
                   6500 FT MSL...031/011
                   6000 FT MSL...026/010
                   5000 FT MSL...013/012
                   4700 FT MSL...005/013
                   4600 FT MSL...001/011
                   4000 FT MSL...355/011
                   4000 FT MSL...353/011

Dodge City (KDDC) 02/18/19 12:31 UTC
Radar VAD winds      Height      Dir/Spd(kt)
                  18000 FT MSL...238/030
                  17000 FT MSL...252/025
                  16000 FT MSL...240/027
                  15000 FT MSL...241/027
                  14000 FT MSL...235/026
                  13900 FT MSL...238/022
                  13000 FT MSL...236/027
                  12000 FT MSL...234/029
                  11600 FT MSL...235/027
                  11000 FT MSL...235/030
                  10000 FT MSL...229/027
                   9700 FT MSL...227/025
                   9000 FT MSL...217/020
                   8100 FT MSL...211/014
                   8000 FT MSL...203/012
                   7000 FT MSL...144/006
                   6900 FT MSL...144/006
                   6000 FT MSL...075/008
                   5800 FT MSL...072/008
                   5100 FT MSL...045/009
                   5000 FT MSL...041/009
                   4200 FT MSL...026/008
                   4000 FT MSL...009/013
                   3800 FT MSL...009/008
                   3200 FT MSL...353/024
                   3000 FT MSL...354/014
                   3000 FT MSL...354/014

Goodland Aviation Discussion
Issued at 1152 UTC Monday, February 18, 2019

.AVIATION...(For the 12Z TAFS through 12Z Tuesday morning)
Issued at 413 AM MST Mon Feb 18 2019
GLD will see IFR conditions with light snow through about 18Z.
Snow will taper off after 18Z with MVFR conditions expected.
Conditions will return to IFR after 01Z as ceilings lower and a
chance of light snow returns.
VFR conditions will transition to MVFR by 20Z and IFR after 03Z
due to lowering ceilings. There is also a chance of light snow
moving over the TAF site after 10Z Tuesday morning.

Dodge City Aviation Discussion
Issued at 1037 UTC Monday, February 18, 2019

.AVIATION...(For the 12Z TAFS through 12Z Tuesday morning)
Issued at 435 AM CST Mon Feb 18 2019
Light snow and occasional MVFR conditions will be observed across
the 3 southern TAF sites this morning. Otherwise expect mostly
cloudy skies throughout the day. Winds will generally be from the
north to northeast, shifting to more of an easterly direction this
evening.


* * * * * Texas/Oklahoma * * * * *

KGUY 181120Z 1812/1912 06010KT 6SM -SN SCT015 OVC050
     FM181900 09010KT P6SM OVC050=

KDHT 181120Z 1812/1912 07012KT 2SM -SN SCT015 OVC020
     FM182000 10012KT P6SM BKN050
METAR KDHT 181153Z AUTO 05017KT 3SM -SN SCT012 OVC022 M09/M12 A3019 RMK
       AO2 SLP238 P0000 60000 T10941122 11011 21094 53013
SPECI KDHT 181140Z AUTO 06014KT 3SM -SN FEW012 OVC022 M09/M12 A3019 RMK
       AO2 P0000 T10941122
SPECI KDHT 181134Z AUTO 05013KT 1 3/4SM -SN SCT010 OVC022 M09/M12 A3019
       RMK AO2 P0000 T10941122

Amarillo (KAMA) 02/18/19 12:31 UTC
Radar VAD winds      Height      Dir/Spd(kt)
                   9000 FT MSL...225/039
                   8000 FT MSL...201/039
                   7000 FT MSL...170/032
                   6500 FT MSL...169/010
                   6000 FT MSL...143/023
                   5000 FT MSL...060/017
                   4700 FT MSL...064/011
                   4600 FT MSL...047/017
                   4000 FT MSL...044/016
                   4000 FT MSL...040/018

Amarillo Aviation Discussion
Issued at 1108 UTC Monday, February 18, 2019

.AVIATION...
For the 12Z TAFs:
TAFs will be in MVFR/IFR conditions this morning through parts of
the afternoon, mainly for KDHT and KGUY...as KAMA should be far
enough south to avoid the low ceilings and visibility restrictions
due to snow. KDHT and KGUY will be stuck with low clouds and
periods of light snow that could keep visibilities in IFR. Look
for some relief later this afternoon. Easterly winds to be the
norm through this period around 10-15 knots.


* * * * * New Mexico * * * * *

KFMN 181144Z 1812/1912 10006KT P6SM OVC045
     FM181600 12012KT 4SM -SN OVC015
      TEMPO 1818/1822 2SM -SN OVC009
     FM182200 18009KT 4SM -SN OVC025
METAR KFMN 181153Z AUTO 09008KT 9SM -SN CLR M04/M07 A2987 RMK AO2 SLP138
        P0000 60001 70002 T10441067 11022 21050 56004
METAR KFMN 180953Z AUTO 06003KT 9SM -SN BKN044 M04/M06 A2988 RMK AO2
       SLP142 P0000 T10391061

METAR KSKX 181156Z AUTO 14006KT 10SM FEW013 BKN031 OVC060 M08/M10 A2993
       RMK AO2 SNE48 SLP176 P0000 60004 70004 T10831100 11039 21094
       55000 FZRANO $
SPECI KSKX 181145Z AUTO 11005KT 7SM -SN FEW015 BKN047 OVC070 M08/M09
       A2993 RMK AO2 P0000 FZRANO $
SPECI KSKX 181136Z AUTO 13004KT 4SM -SN BR SCT010 BKN019 OVC065 M07/M08
       A2993 RMK AO2 P0000 FZRANO $

KLVS 181144Z 1812/1912 10015G23KT P6SM OVC025
     FM181700 12018G26KT 4SM -SN OVC012
      TEMPO 1821/1901 1SM -SN OVC007
     FM190300 13014KT 2SM -SN OVC009
METAR KLVS 181153Z AUTO 16009KT 10SM CLR M10/M12 A2992 RMK AO2 SLP149
        T11001122 11056 21100 53002
METAR KLVS 181053Z AUTO 21011KT 10SM CLR M09/M12 A2991 RMK AO2 SLP132
       T10891117
METAR KLVS 180953Z AUTO 17010KT 10SM CLR M08/M11 A2991 RMK AO2 SLP130
       T10831111

SPECI KRTN 181204Z AUTO 07011KT 1/2SM SN FZFG VV008 M11/M12 A3002 RMK
       AO2 P0002 T11061122
METAR KRTN 181153Z AUTO 09011KT 3/4SM -SN BR VV010 M11/M13 A3002 RMK AO2
       SLP193 P0002 60027 70027 T11061128 11039 21106 53019
SPECI KRTN 181139Z AUTO 08013KT 1SM -SN BR VV012 M11/M13 A3001 RMK AO2
       P0002 T11061128

SPECI KCAO 181217Z AUTO 06013KT 3SM -SN BR OVC023 M13/M14 A3013 RMK AO2
       P0000 T11281144
SPECI KCAO 181204Z AUTO 05014KT 2 1/2SM -SN BR FEW015 OVC026 M12/M14
       A3013 RMK AO2 P0000 T11221144
METAR KCAO 181155Z AUTO 05012KT 1 3/4SM -SN BR SCT013 OVC026 M12/M14
       A3012 RMK AO2 SLP233 P0002 60025 70025 T11221144 11078 21122
       53010

Albuquerque (KABX) 02/18/19 12:31 UTC
Radar VAD winds      Height      Dir/Spd(kt)
                  15000 FT MSL...331/001
                  12200 FT MSL...280/010
                  11000 FT MSL...283/004
                  10000 FT MSL...208/013
                   9000 FT MSL...102/007
                   8700 FT MSL...081/004
                   8000 FT MSL...105/006
                   6900 FT MSL...157/002

Albuquerque Aviation Discussion
Issued at 1201 UTC Monday, February 18, 2019

.AVIATION...
12Z TAF CYCLE
Currently a mixed bag of VFR down to IFR across the area, but
conditions will deteriorate tonight as an upper level low approaches
from the west and a backdoor cold front makes southwest progress into
central NM. Areas of snow will expand across the area this evening,
then spread into eastern NM overnight. Snow at area terminals is
likely, with temperatures well below freezing making for poor runway
conditions. KROW will likely remain dry. A moderate easterly
gap/canyon wind is forecast to develop this evening and impact KABQ
with gusts to 35kts or greater, likely prompting an airport weather
warning.
11

* * * * * Winds and Temperatures Aloft Forecasts * * * * *

DATA BASED ON 180000Z
VALID 180600Z   FOR USE 0500-0900Z. TEMPS NEG ABV 24000
FT  3000    6000   9000    12000   18000   24000  30000  34000  39000
SLC      9900    1508-12 1507-18 1411-33 1919-47 221353 261952 282548
BCE                      9900-18 2112-33 2228-46 263248 264648 275548
LND              9900-18 2005-20 2906-34 2617-47 252356 252155 262349
RKS              0912    1305-18 2606-33 2219-46 232357 252254 262449
GJT              1619-10 1921-17 2118-31 2117-45 232854 253850 264548
FMN              2223-09 2328-17 2417-31 2112-45 256547 257848 267449
ABQ              2518-08 2521-16 2340-28 2678-37 762545 762450 760451
MBW              1607    2809-20 2815-34 2726-46 262856 252355 253150
DEN              2106-15 2212-17 2324-32 2535-46 243255 254553 255050
PUB              1623-12 1714-17 2121-31 2231-44 245052 256451 257150
ALS                      2222-16 2218-31 2227-44 245950 257749 257649
TCC      1626    2220-05 2323-14 2445-28 2573-38 752945 753750 752452
BFF      3412    3023-16 2929-20 2925-34 2828-44 272954 252655 253950
GLD      3629    3017-11 2723-18 2644-32 2645-44 264953 255952 256750
GCK      0126-09 2512-10 2619-17 2544-30 2652-43 257550 258849 259050
GAG      0708-06 2315-08 2524-14 2646-30 2566-37 752144 752948 751951
AMA      1530    2132-07 2427-13 2547-28 2573-37 753643 753748 752150
---------------------------------------------------------------------

DATA BASED ON 180000Z
VALID 181200Z   FOR USE 0900-1800Z. TEMPS NEG ABV 24000
FT  3000    6000   9000    12000   18000   24000  30000  34000  39000
SLC      9900    1505-12 1606-19 1609-34 1612-48 251752 272052 272649
BCE                      1211-18 1821-31 2030-45 253848 255248 275347
LND              9900-16 9900-19 2510-34 2423-47 241956 252354 262650
RKS              0811    1107-19 2312-33 2128-46 231954 252653 263150
GJT              2209-11 2113-18 2321-32 2030-46 244050 254950 255049
FMN              2512-11 2321-17 2227-32 2554-41 750446 750150 258150
ABQ              2713-09 2611-16 2572-25 7412-31 741346 751352 750753
MBW              1210    9900-19 2517-33 2529-46 232356 243454 253550
DEN              1812-17 1922-19 2319-31 2421-46 244152 255651 255650
PUB              1622-17 2127-18 2320-32 2230-45 258947 259050 257951
ALS                      2216-17 2319-33 2450-41 751146 750650 258351
TCC      1729    2429-08 2340-16 2587-23 7513-30 752646 752452 751954
BFF      3307    3010-17 2816-20 2633-33 2739-46 242656 253754 254250
GLD      0211    2410-13 2315-18 2324-31 2437-44 246950 258251 257751
GCK      0516-11 2132-13 2426-16 2333-30 2461-41 753446 752952 750452
GAG      1018-07 2235-09 2431-15 2566-26 7516-31 753146 752452 752355
AMA      1528    2335-07 2537-15 2590-22 7512-29 752446 752851 752755
---------------------------------------------------------------------

DATA BASED ON 180000Z
VALID 190000Z   FOR USE 1800-0500Z. TEMPS NEG ABV 24000
FT  3000    6000   9000    12000   18000   24000  30000  34000  39000
SLC      3405    3610-13 3305-19 2415-33 2230-46 281152 281851 272549
BCE                      0416-17 0706-31 1906-45 233548 243548 264248
LND              1705-15 2206-19 2411-34 2319-48 242954 253051 262950
RKS              0505    9900-19 2310-33 2426-47 243353 253452 253350
GJT              1007-10 1711-16 1922-30 2024-45 235551 235951 245450
FMN              1719-08 1821-15 1926-29 2247-40 730346 239950 248250
ABQ              1724-06 1923-13 2362-24 2397-32 730246 730351 239752
MBW              1319    2616-19 2428-32 2326-46 244653 245052 244450
DEN              1206-15 2220-16 2513-31 2627-45 247949 248851 247150
PUB              1922-13 2116-15 2614-31 2459-38 741646 741151 238952
ALS                      1929-16 2215-30 2362-38 731446 730752 249253
TCC      1117    1718-09 2231-13 2476-20 2497-31 733242 733751 732256
BFF      1211    2015-17 2313-19 2519-31 2324-46 245452 246352 245951
GLD      1716    2111-12 2325-17 2426-31 2473-37 742047 741852 740254
GCK      1819-08 2222-11 2134-16 2463-27 2499-33 742445 733852 742255
GAG      1621-05 2128-07 2238-13 2468-22 7402-31 743343 735050 744859
AMA      1316    2030-05 2136-11 2470-20 2499-31 742942 734250 734259
---------------------------------------------------------------------

This product is updated automatically at approximately 10, 30 and 50
minutes after each hour, 24 hours per day, 7 days per week.  It may
become unavailable at times due to system outages without prior notice.
Users are advised to check the time at the top of the product to ensure
that it is current.  Furthermore, content and format of the product are
subject to change without prior notice.

Comments and suggestions are welcome and should be directed to one of
the addresses or phone numbers shown at the bottom of this page.  In
order to expedite a response to comments or suggestions, be sure to
mention your interest in the hot-air balloon forecast.



USA.gov is the U.S. government's official web portal to all federal, state and local government web resources and services.